Emerson, Kentucky
Current Conditions -  °F | °C
As of 8:10 AM on Friday 24 Oct 2014 (Local Time) from KSYM Reporting Station
Haze Haze  
Wind Chill: 41°   Ceiling: Unl
Heat Index: 41°   Visibility: 3mi
Dew Point: 41°   Wind: 3mph
Humidity: 100%   Direction: 220°SW
Pressure: 30.15"   Gusts: NA
Location:  38.35°N, 83.25°W
Report Text: KSYM 241210Z AUTO 22003KT 3SM BR CLR 05/05 A3015 RMK AO2
Loading
Personal Weather Stations






























Interactive Weather Map
Tropical Storm Tracking
New forecast layout! Learn more

10-Day Weather Forecast

Advertisements
Track Severe Weather on mobile